createdAt,value
2023-03-22T00:00:43.924Z,18.60
2023-03-22T00:03:21.597Z,19.10
2023-03-22T00:05:58.223Z,17.60
2023-03-22T00:08:26.816Z,18.80
2023-03-22T00:10:55.925Z,17.20
2023-03-22T00:13:24.956Z,18.20
2023-03-22T00:15:54.634Z,17.60
2023-03-22T00:18:23.488Z,17.20
2023-03-22T00:20:56.952Z,17.80
2023-03-22T00:23:26.816Z,16.20
2023-03-22T00:25:55.764Z,17.20
2023-03-22T00:28:24.809Z,19.10
2023-03-22T00:30:55.556Z,18.00
2023-03-22T00:33:26.797Z,18.00
2023-03-22T00:35:57.746Z,17.70
2023-03-22T00:38:42.069Z,18.00
2023-03-22T00:41:16.402Z,17.80
2023-03-22T00:43:47.341Z,18.90
2023-03-22T00:46:17.555Z,17.60
2023-03-22T00:48:46.160Z,17.10
2023-03-22T00:51:16.171Z,16.70
2023-03-22T00:53:45.307Z,17.20
2023-03-22T00:56:15.015Z,16.70
2023-03-22T00:58:47.491Z,17.00
2023-03-22T01:01:16.647Z,15.80
2023-03-22T01:03:49.192Z,17.30
2023-03-22T01:06:18.629Z,17.30
2023-03-22T01:08:50.180Z,17.60
2023-03-22T01:11:19.238Z,18.20
2023-03-22T01:13:48.327Z,17.80
2023-03-22T01:16:18.100Z,18.50
2023-03-22T01:18:48.759Z,16.60
2023-03-22T01:21:19.033Z,17.80
2023-03-22T01:23:48.231Z,18.30
2023-03-22T01:26:17.240Z,15.70
2023-03-22T01:28:45.743Z,17.20
2023-03-22T01:31:14.743Z,15.60
2023-03-22T01:33:43.401Z,17.30
2023-03-22T01:36:13.072Z,18.10
2023-03-22T01:38:41.695Z,17.80
2023-03-22T01:41:12.430Z,18.00
2023-03-22T01:43:44.501Z,16.90
2023-03-22T01:46:13.840Z,17.50
2023-03-22T01:48:46.583Z,17.70
2023-03-22T01:51:20.016Z,17.80
2023-03-22T01:54:17.139Z,18.90
2023-03-22T01:56:46.974Z,18.40
2023-03-22T01:59:23.878Z,18.50
2023-03-22T02:02:05.529Z,17.80
2023-03-22T02:04:38.608Z,19.80
2023-03-22T02:07:14.763Z,19.50
2023-03-22T02:09:45.454Z,18.40
2023-03-22T02:12:28.541Z,18.90
2023-03-22T02:15:09.602Z,18.80
2023-03-22T02:18:16.472Z,18.90
2023-03-22T02:21:28.986Z,19.70
2023-03-22T02:24:28.832Z,19.10
2023-03-22T02:27:22.315Z,20.60
2023-03-22T02:30:07.031Z,19.50
2023-03-22T02:33:06.981Z,17.80
2023-03-22T02:35:49.393Z,18.90
2023-03-22T02:38:36.268Z,19.20
2023-03-22T02:41:13.249Z,19.80
2023-03-22T02:43:52.037Z,20.50
2023-03-22T02:46:35.450Z,19.50
2023-03-22T02:49:13.110Z,20.70
2023-03-22T02:51:49.337Z,21.10
2023-03-22T02:54:34.576Z,20.80
2023-03-22T02:57:09.923Z,22.00
2023-03-22T02:59:45.724Z,22.50
2023-03-22T03:02:19.499Z,21.70
2023-03-22T03:04:55.509Z,21.00
2023-03-22T03:07:30.492Z,22.30
2023-03-22T03:09:59.462Z,22.80
2023-03-22T03:12:29.747Z,22.20
2023-03-22T03:14:58.563Z,23.20
2023-03-22T03:17:45.933Z,21.60
2023-03-22T03:20:29.671Z,22.30
2023-03-22T03:23:15.322Z,21.20
2023-03-22T03:25:53.434Z,21.50
2023-03-22T03:28:37.627Z,22.10
2023-03-22T03:31:16.887Z,22.50
2023-03-22T03:33:55.684Z,19.50
2023-03-22T03:36:27.198Z,22.00
2023-03-22T03:38:58.177Z,21.50
2023-03-22T03:41:30.380Z,22.40
2023-03-22T03:44:01.841Z,20.50
2023-03-22T03:46:34.533Z,21.30
2023-03-22T03:49:05.239Z,21.70
2023-03-22T03:51:47.279Z,23.00
2023-03-22T03:54:18.375Z,22.70
2023-03-22T03:56:47.641Z,22.90
2023-03-22T03:59:21.249Z,21.90
2023-03-22T04:01:57.613Z,21.60
2023-03-22T04:04:30.556Z,20.70
2023-03-22T04:07:06.952Z,21.20
2023-03-22T04:09:39.740Z,20.10
2023-03-22T04:12:22.024Z,21.00
2023-03-22T04:15:16.463Z,20.80
2023-03-22T04:17:48.187Z,20.50
2023-03-22T04:20:20.309Z,18.60
2023-03-22T04:22:52.133Z,20.70
2023-03-22T04:25:22.270Z,19.40
2023-03-22T04:28:00.662Z,18.50
2023-03-22T04:30:30.263Z,18.70
2023-03-22T04:33:46.320Z,19.70
2023-03-22T04:36:41.405Z,19.60
2023-03-22T04:39:48.693Z,18.10
2023-03-22T04:42:38.711Z,18.70
2023-03-22T04:45:19.033Z,18.20
2023-03-22T04:48:00.855Z,19.90
2023-03-22T04:50:37.076Z,19.50
2023-03-22T04:53:06.410Z,18.90
2023-03-22T04:55:35.194Z,19.90
2023-03-22T04:58:04.707Z,18.70
2023-03-22T05:00:33.414Z,18.80
2023-03-22T05:03:03.546Z,16.10
2023-03-22T05:05:36.635Z,19.20
2023-03-22T05:08:08.514Z,18.20
2023-03-22T05:10:41.470Z,17.90
2023-03-22T05:13:16.308Z,18.30
2023-03-22T05:15:48.634Z,17.90
2023-03-22T05:18:33.907Z,17.90
2023-03-22T05:21:06.183Z,18.30
2023-03-22T05:23:35.213Z,18.50
2023-03-22T05:26:08.062Z,19.50
2023-03-22T05:28:38.030Z,18.50
2023-03-22T05:31:14.039Z,19.10
2023-03-22T05:33:47.276Z,17.60
2023-03-22T05:36:19.926Z,18.50
2023-03-22T05:39:07.513Z,19.40
2023-03-22T05:41:37.128Z,19.20
2023-03-22T05:44:06.965Z,20.40
2023-03-22T05:47:10.880Z,19.70
2023-03-22T05:50:02.453Z,19.00
2023-03-22T05:52:32.845Z,20.30
2023-03-22T05:55:22.668Z,21.10
2023-03-22T05:57:56.105Z,22.40
2023-03-22T06:00:31.355Z,24.90
2023-03-22T06:03:38.954Z,22.50
2023-03-22T06:06:16.803Z,20.20
2023-03-22T06:08:57.831Z,19.10
2023-03-22T06:11:35.540Z,17.70
2023-03-22T06:14:06.197Z,16.50
2023-03-22T06:16:48.621Z,17.20
2023-03-22T06:19:17.309Z,17.90
2023-03-22T06:21:47.574Z,17.20
2023-03-22T06:24:16.545Z,16.50
2023-03-22T06:26:45.562Z,14.80
2023-03-22T06:29:15.175Z,14.50
2023-03-22T06:31:44.438Z,12.40
2023-03-22T06:34:14.240Z,12.40
2023-03-22T06:36:44.733Z,12.40
2023-03-22T06:39:16.235Z,11.50
2023-03-22T06:41:46.249Z,10.80
2023-03-22T06:44:18.040Z,9.00
2023-03-22T06:46:53.951Z,8.00
2023-03-22T06:52:11.054Z,8.90
2023-03-22T06:54:39.902Z,9.00
2023-03-22T06:57:08.766Z,9.70
2023-03-22T06:59:38.959Z,8.90
2023-03-22T07:02:10.626Z,8.10
2023-03-22T07:04:39.239Z,9.00
2023-03-22T07:07:08.129Z,8.30
2023-03-22T07:09:36.918Z,8.50
2023-03-22T07:12:06.554Z,9.50
2023-03-22T07:14:35.820Z,8.70
2023-03-22T07:17:32.621Z,8.50
2023-03-22T07:20:01.562Z,9.50
2023-03-22T07:22:30.351Z,9.90
2023-03-22T07:25:01.586Z,9.70
2023-03-22T07:27:31.404Z,9.90
2023-03-22T07:30:00.292Z,8.20
2023-03-22T07:32:29.962Z,9.10
2023-03-22T07:35:07.171Z,9.20
2023-03-22T07:37:36.085Z,9.10
2023-03-22T07:40:09.062Z,9.00
2023-03-22T07:42:38.436Z,10.90
2023-03-22T07:45:30.076Z,10.20
2023-03-22T07:48:38.547Z,10.40
2023-03-22T07:51:27.182Z,9.90
2023-03-22T07:53:55.703Z,10.60
2023-03-22T07:56:26.712Z,9.80
2023-03-22T07:58:55.860Z,9.20
2023-03-22T08:01:28.768Z,11.30
2023-03-22T08:04:22.028Z,10.60
2023-03-22T08:07:05.312Z,9.90
2023-03-22T08:09:34.138Z,11.00
2023-03-22T08:12:03.496Z,10.40
2023-03-22T08:14:36.835Z,10.30
2023-03-22T08:17:08.797Z,8.70
2023-03-22T08:19:37.332Z,10.40
2023-03-22T08:22:08.006Z,9.70
2023-03-22T08:25:03.086Z,9.20
2023-03-22T08:27:37.656Z,9.30
2023-03-22T08:30:09.271Z,9.90
2023-03-22T08:32:38.204Z,9.60
2023-03-22T08:35:08.937Z,9.80
2023-03-22T08:37:39.076Z,9.00
2023-03-22T08:40:10.843Z,9.30
2023-03-22T08:42:53.816Z,9.60
2023-03-22T08:45:22.633Z,9.20
2023-03-22T08:47:59.399Z,8.40
2023-03-22T08:50:29.345Z,10.10
2023-03-22T08:53:07.229Z,10.80
2023-03-22T08:55:39.383Z,11.30
2023-03-22T08:58:12.064Z,9.50
2023-03-22T09:01:03.890Z,10.60
2023-03-22T09:03:38.629Z,9.60
2023-03-22T09:06:09.932Z,10.00
2023-03-22T09:08:41.435Z,9.50
2023-03-22T09:11:17.944Z,10.10
2023-03-22T09:13:48.835Z,10.60
2023-03-22T09:16:18.864Z,10.40
2023-03-22T09:18:48.203Z,9.80
2023-03-22T09:21:18.849Z,11.20
2023-03-22T09:24:01.358Z,9.60
2023-03-22T09:29:07.831Z,8.60
2023-03-22T09:31:42.988Z,7.90
2023-03-22T09:34:26.617Z,8.90
2023-03-22T09:37:02.257Z,9.50
2023-03-22T09:39:33.703Z,9.30
2023-03-22T09:42:07.551Z,9.20
2023-03-22T09:44:41.303Z,9.10
2023-03-22T09:47:18.145Z,9.40
2023-03-22T09:49:53.643Z,9.90
2023-03-22T09:52:23.853Z,9.80
2023-03-22T09:54:53.360Z,8.10
2023-03-22T09:57:29.332Z,9.30
2023-03-22T10:00:11.158Z,9.00
2023-03-22T10:02:53.504Z,8.70
2023-03-22T10:05:30.264Z,8.90
2023-03-22T10:08:23.278Z,9.00
2023-03-22T10:10:52.484Z,8.50
2023-03-22T10:13:31.899Z,8.80
2023-03-22T10:16:06.798Z,10.10
2023-03-22T10:18:38.194Z,9.70
2023-03-22T10:21:09.945Z,8.60
2023-03-22T10:23:44.231Z,10.00
2023-03-22T10:26:21.471Z,8.20
2023-03-22T10:28:59.303Z,9.40
2023-03-22T10:31:39.951Z,8.10
2023-03-22T10:34:19.105Z,9.00
2023-03-22T10:36:49.922Z,9.00
2023-03-22T10:39:30.031Z,8.30
2023-03-22T10:42:02.356Z,9.00
2023-03-22T10:44:38.337Z,9.40
2023-03-22T10:47:10.391Z,9.20
2023-03-22T10:49:44.550Z,9.40
2023-03-22T10:52:31.227Z,9.30
2023-03-22T10:55:03.147Z,9.10
2023-03-22T10:57:33.161Z,9.00
2023-03-22T11:00:12.460Z,9.20
2023-03-22T11:02:50.899Z,8.80
2023-03-22T11:05:26.100Z,9.10
2023-03-22T11:07:57.986Z,9.00
2023-03-22T11:10:32.135Z,8.60
2023-03-22T11:13:17.783Z,8.70
2023-03-22T11:15:55.013Z,9.50
2023-03-22T11:18:31.783Z,9.00
2023-03-22T11:21:09.697Z,8.70
2023-03-22T11:23:42.194Z,8.00
2023-03-22T11:26:14.387Z,8.90
2023-03-22T11:28:47.053Z,8.10
2023-03-22T11:31:19.032Z,8.60
2023-03-22T11:33:56.530Z,9.30
2023-03-22T11:36:28.191Z,9.00
2023-03-22T11:39:02.599Z,7.70
2023-03-22T11:41:42.387Z,8.00
2023-03-22T11:44:16.170Z,8.50
2023-03-22T11:46:53.834Z,9.50
2023-03-22T11:49:27.145Z,8.80
2023-03-22T11:52:07.778Z,8.10
2023-03-22T11:54:38.653Z,8.20
2023-03-22T11:57:16.481Z,7.10
2023-03-22T11:59:54.666Z,8.90
2023-03-22T12:02:28.398Z,8.20
2023-03-22T12:05:03.963Z,8.90
2023-03-22T12:07:35.286Z,8.30
2023-03-22T12:10:12.328Z,7.90
2023-03-22T12:12:50.528Z,7.60
2023-03-22T12:15:25.810Z,7.70
2023-03-22T12:17:58.777Z,7.60
2023-03-22T12:20:38.046Z,6.10
2023-03-22T12:23:15.358Z,6.20
2023-03-22T12:25:51.580Z,6.10
2023-03-22T12:28:28.194Z,7.30
2023-03-22T12:30:59.205Z,7.60
2023-03-22T12:33:30.577Z,6.30
2023-03-22T12:36:02.593Z,7.50
2023-03-22T12:38:39.935Z,6.20
2023-03-22T12:41:14.871Z,7.20
2023-03-22T12:43:52.727Z,6.70
2023-03-22T12:46:48.137Z,6.90
2023-03-22T12:49:36.800Z,7.90
2023-03-22T12:52:15.464Z,8.40
2023-03-22T12:54:47.454Z,7.30
2023-03-22T12:57:16.869Z,8.10
2023-03-22T12:59:53.059Z,7.50
2023-03-22T13:02:30.596Z,7.60
2023-03-22T13:05:01.479Z,7.70
2023-03-22T13:08:03.510Z,8.20
2023-03-22T13:11:00.704Z,8.20
2023-03-22T13:13:58.570Z,7.80
2023-03-22T13:16:52.297Z,7.30
2023-03-22T13:19:36.456Z,6.50
2023-03-22T13:22:21.212Z,7.30
2023-03-22T13:25:05.814Z,7.30
2023-03-22T13:27:37.802Z,7.10
2023-03-22T13:30:23.952Z,7.40
2023-03-22T13:33:02.871Z,8.80
2023-03-22T13:35:43.987Z,7.30
2023-03-22T13:38:21.800Z,6.90
2023-03-22T13:40:59.644Z,6.90
2023-03-22T13:43:32.690Z,7.30
2023-03-22T13:46:10.748Z,6.30
2023-03-22T13:51:32.122Z,6.90
2023-03-22T13:54:07.005Z,7.70
2023-03-22T13:56:52.821Z,6.50
2023-03-22T13:59:29.362Z,7.30
2023-03-22T14:02:10.330Z,7.80
2023-03-22T14:04:43.949Z,9.50
2023-03-22T14:07:23.064Z,7.10
2023-03-22T14:09:56.139Z,7.80
2023-03-22T14:12:31.736Z,8.80
2023-03-22T14:15:04.650Z,9.60
2023-03-22T14:17:39.376Z,8.20
2023-03-22T14:20:15.319Z,7.40
